Time;durP1;ratioP1;P1;durP2;ratioP2;P2;SDS_P1;SDS_P2;PMS_P1;PMS_P2;Temp;Humidity;BMP_temperature;BMP_pressure;BME280_temperature;BME280_humidity;BME280_pressure;Samples;Min_cycle;Max_cycle;Signal;HPM_P1;HPM_P2
2021/12/18 00:01:17;;;;;;;;;;;;;;;3.74;76.63;100196.31;5028188;28;19916;-83
2021/12/18 00:03:42;;;;;;;;;;;;;;;3.56;76.75;100199.41;5034782;28;19923;-82
2021/12/18 00:06:08;;;;;;;;;;;;;;;3.63;76.93;100195.22;5027710;28;19913;-82
2021/12/18 00:08:34;;;;;;;;;;;;;;;3.51;77.24;100201.06;5041136;28;19978;-84
2021/12/18 00:10:59;;;;;;;;;;;;;;;2.42;81.51;100214.09;5048038;28;19917;-85
2021/12/18 00:13:25;;;;;;;;;;;;;;;2.29;83.03;100210.28;5038270;28;20343;-83
2021/12/18 00:15:50;;;;;;;;;;;;;;;2.60;82.04;100211.97;5027706;28;19924;-83
2021/12/18 00:18:16;;;;;;;;;;;;;;;2.80;81.49;100209.84;5057430;28;19927;-83
2021/12/18 00:20:41;;;;;;;;;;;;;;;3.08;80.18;100205.31;5026942;28;19917;-83
2021/12/18 00:23:06;;;;;;;;;;;;;;;3.19;79.11;100189.91;5036415;28;19920;-83
2021/12/18 00:25:32;;;;;;;;;;;;;;;3.43;77.97;100192.19;5041419;28;19943;-84
2021/12/18 00:27:57;;;;;;;;;;;;;;;3.37;77.93;100198.16;5028323;28;19921;-84
2021/12/18 00:30:23;;;;;;;;;;;;;;;3.25;77.41;100192.66;5026014;28;19917;-84
2021/12/18 00:32:48;;;;;;;;;;;;;;;2.80;78.99;100204.66;5026223;28;19920;-84
2021/12/18 00:35:14;;;;;;;;;;;;;;;2.97;79.22;100198.97;5026177;28;20027;-83
2021/12/18 00:37:39;;;;;;;;;;;;;;;2.94;78.73;100196.28;5025192;28;19952;-83
2021/12/18 00:40:09;;;;;;;;;;;;;;;2.98;79.45;100196.41;5026202;28;19967;-83
2021/12/18 00:45:00;;;;;;;;;;;;;;;3.34;78.17;100186.78;5027490;28;19920;-83
2021/12/18 00:47:25;;;;;;;;;;;;;;;3.27;77.76;100188.34;5027114;28;19924;-82
2021/12/18 00:49:51;;;;;;;;;;;;;;;3.27;78.40;100183.13;5028052;28;19921;-83
2021/12/18 00:52:16;;;;;;;;;;;;;;;3.45;77.00;100181.78;5027152;28;19919;-82
2021/12/18 00:54:41;;;;;;;;;;;;;;;3.40;77.08;100185.19;5026499;28;19917;-83
2021/12/18 00:57:07;;;;;;;;;;;;;;;3.32;76.97;100194.56;5026880;28;19940;-83
2021/12/18 00:59:35;;;;;;;;;;;;;;;3.26;77.01;100197.03;5044238;28;19999;-83
2021/12/18 01:02:00;;;;;;;;;;;;;;;3.31;77.34;100190.19;5045863;28;20414;-83
2021/12/18 01:04:26;;;;;;;;;;;;;;;3.33;77.77;100204.13;5034759;28;19917;-82
2021/12/18 01:06:52;;;;;;;;;;;;;;;3.36;77.77;100198.13;5027342;28;19964;-85
2021/12/18 01:09:21;;;;;;;;;;;;;;;3.54;76.52;100197.66;5025098;28;20427;-82
2021/12/18 01:11:48;;;;;;;;;;;;;;;3.46;77.01;100202.69;5026491;28;19936;-82
2021/12/18 01:14:27;;;;;;;;;;;;;;;3.39;76.81;100201.66;5026972;28;19920;-82
2021/12/18 01:22:41;;;;;;;;;;;;;;;3.40;76.91;100205.16;5035394;28;19916;-82
2021/12/18 01:24:51;;;;;;;;;;;;;;;3.12;78.47;100204.53;5026447;28;19917;-84
2021/12/18 01:27:16;;;;;;;;;;;;;;;3.25;77.40;100208.31;5024609;28;19921;-82
2021/12/18 01:29:41;;;;;;;;;;;;;;;2.66;78.95;100201.69;5025673;28;20364;-82
2021/12/18 01:32:07;;;;;;;;;;;;;;;2.60;79.55;100200.66;5026772;28;20385;-81
2021/12/18 01:34:33;;;;;;;;;;;;;;;2.69;79.84;100193.97;5026639;28;19920;-82
2021/12/18 01:36:58;;;;;;;;;;;;;;;2.80;79.65;100188.13;5027190;28;19917;-81
2021/12/18 01:39:24;;;;;;;;;;;;;;;2.71;80.08;100186.19;5027044;28;19928;-84
2021/12/18 01:42:27;;;;;;;;;;;;;;;2.81;80.07;100182.97;5026958;28;19921;-80
2021/12/18 01:52:52;;;;;;;;;;;;;;;2.92;78.25;100183.22;5043648;28;19928;-81
2021/12/18 01:55:18;;;;;;;;;;;;;;;2.84;78.68;100182.13;5037327;28;19928;-82
2021/12/18 01:57:43;;;;;;;;;;;;;;;2.79;78.79;100178.56;5025817;28;19924;-81
2021/12/18 02:00:16;;;;;;;;;;;;;;;2.64;79.33;100176.44;5033860;28;19993;-81
2021/12/18 02:02:42;;;;;;;;;;;;;;;2.77;79.50;100167.22;5046508;28;20315;-81
2021/12/18 02:05:07;;;;;;;;;;;;;;;2.64;79.42;100176.44;5029590;28;19927;-81
2021/12/18 02:07:32;;;;;;;;;;;;;;;2.57;80.09;100169.34;5026690;28;20454;-81
2021/12/18 02:12:35;;;;;;;;;;;;;;;2.67;80.51;100159.19;5029288;28;20203;-84
2021/12/18 02:23:00;;;;;;;;;;;;;;;2.69;79.93;100167.03;5030117;28;19924;-82
2021/12/18 02:25:26;;;;;;;;;;;;;;;2.73;79.51;100160.16;5033729;28;19925;-81
2021/12/18 02:27:52;;;;;;;;;;;;;;;2.77;79.83;100164.63;5029470;28;19952;-81
2021/12/18 02:30:21;;;;;;;;;;;;;;;2.74;79.59;100161.94;5040744;28;20357;-82
2021/12/18 02:32:48;;;;;;;;;;;;;;;2.94;79.15;100163.28;5049685;28;19926;-81
2021/12/18 02:35:47;;;;;;;;;;;;;;;2.98;78.68;100162.50;5042519;28;19991;-81
2021/12/18 02:38:17;;;;;;;;;;;;;;;3.12;78.28;100157.63;5027847;28;19921;-81
2021/12/18 02:40:58;;;;;;;;;;;;;;;3.12;78.05;100157.63;5029780;28;19921;-81
2021/12/18 02:43:28;;;;;;;;;;;;;;;3.24;77.89;100159.59;5028542;28;20368;-81
2021/12/18 02:45:58;;;;;;;;;;;;;;;3.27;77.90;100162.28;5041354;28;19917;-81
2021/12/18 02:48:23;;;;;;;;;;;;;;;3.25;77.97;100161.38;5049389;28;19913;-81
2021/12/18 02:50:49;;;;;;;;;;;;;;;3.30;77.97;100159.72;5048334;28;19983;-81
2021/12/18 02:53:14;;;;;;;;;;;;;;;3.28;77.18;100165.78;5039257;28;19916;-82
2021/12/18 02:55:40;;;;;;;;;;;;;;;3.24;77.77;100167.41;5040016;28;20452;-82
2021/12/18 02:58:05;;;;;;;;;;;;;;;3.27;76.98;100164.00;5049292;28;19967;-81
2021/12/18 03:00:30;;;;;;;;;;;;;;;3.26;76.74;100159.63;5032703;28;19925;-82
2021/12/18 03:02:57;;;;;;;;;;;;;;;3.06;77.35;100157.47;5028206;28;19923;-81
2021/12/18 03:05:30;;;;;;;;;;;;;;;3.18;77.69;100164.69;5034490;28;20327;-81
2021/12/18 03:08:04;;;;;;;;;;;;;;;3.18;76.96;100168.19;5040316;28;19921;-81
2021/12/18 03:24:35;;;;;;;;;;;;;;;2.50;80.39;100176.09;5029397;28;19917;-82
2021/12/18 03:27:00;;;;;;;;;;;;;;;2.71;79.80;100182.72;5029190;28;20027;-81
2021/12/18 03:29:26;;;;;;;;;;;;;;;2.16;80.36;100183.03;5048849;28;20043;-81
2021/12/18 03:31:51;;;;;;;;;;;;;;;2.19;81.98;100182.25;5048798;28;19921;-82
2021/12/18 03:34:17;;;;;;;;;;;;;;;2.23;81.44;100178.88;5048695;28;20365;-82
2021/12/18 03:36:42;;;;;;;;;;;;;;;2.32;80.64;100180.00;5048278;28;20294;-81
2021/12/18 03:39:08;;;;;;;;;;;;;;;2.53;80.25;100180.50;5028469;28;20372;-81
2021/12/18 03:41:33;;;;;;;;;;;;;;;2.74;80.18;100183.66;5027816;28;20353;-81
2021/12/18 03:43:58;;;;;;;;;;;;;;;2.84;79.54;100185.66;5028545;28;19974;-81
2021/12/18 03:46:24;;;;;;;;;;;;;;;2.80;79.42;100188.13;5028605;28;20319;-81
2021/12/18 03:48:49;;;;;;;;;;;;;;;2.80;79.55;100191.63;5045670;28;19968;-81
2021/12/18 03:51:15;;;;;;;;;;;;;;;2.95;79.25;100193.72;5048523;28;20370;-81
2021/12/18 03:53:40;;;;;;;;;;;;;;;2.97;78.33;100189.41;5048448;28;20751;-81
2021/12/18 03:56:05;;;;;;;;;;;;;;;2.76;78.81;100194.97;5048267;28;19974;-81
2021/12/18 03:58:31;;;;;;;;;;;;;;;2.10;80.73;100196.78;5030553;28;20407;-81
2021/12/18 04:00:57;;;;;;;;;;;;;;;1.93;81.55;100213.63;5028114;28;19991;-80
2021/12/18 04:03:22;;;;;;;;;;;;;;;1.84;82.01;100209.06;5028280;28;19960;-81
2021/12/18 04:05:48;;;;;;;;;;;;;;;1.49;83.72;100210.63;5028270;28;19921;-80
2021/12/18 04:08:14;;;;;;;;;;;;;;;1.55;84.56;100222.09;5042415;28;19921;-81
2021/12/18 04:10:40;;;;;;;;;;;;;;;1.77;83.32;100221.00;5031935;28;20667;-81
2021/12/18 04:13:06;;;;;;;;;;;;;;;1.84;82.83;100218.56;5027983;28;19916;-83
2021/12/18 04:15:32;;;;;;;;;;;;;;;1.72;83.41;100226.91;5027124;28;19913;-81
2021/12/18 04:17:57;;;;;;;;;;;;;;;1.36;84.66;100232.75;5027856;28;19921;-80
2021/12/18 04:20:23;;;;;;;;;;;;;;;1.24;85.39;100231.56;5027344;28;19944;-80
2021/12/18 04:22:49;;;;;;;;;;;;;;;1.51;85.54;100234.94;5027743;28;19923;-82
2021/12/18 04:25:14;;;;;;;;;;;;;;;1.56;84.86;100234.25;5026860;28;19917;-81
2021/12/18 04:27:39;;;;;;;;;;;;;;;1.79;84.11;100229.75;5039496;28;20378;-81
2021/12/18 04:30:05;;;;;;;;;;;;;;;1.79;83.47;100240.16;5047345;28;20371;-81
2021/12/18 04:32:30;;;;;;;;;;;;;;;1.89;83.49;100236.09;5046919;28;20717;-83
2021/12/18 04:34:56;;;;;;;;;;;;;;;1.88;83.29;100233.44;5045039;28;19955;-81
2021/12/18 04:37:23;;;;;;;;;;;;;;;2.07;82.32;100232.22;5034901;28;19921;-81
2021/12/18 04:39:48;;;;;;;;;;;;;;;2.26;82.36;100231.91;5026941;28;19956;-81
2021/12/18 04:42:13;;;;;;;;;;;;;;;2.32;81.88;100231.19;5026979;28;19964;-82
2021/12/18 04:44:39;;;;;;;;;;;;;;;2.35;81.25;100227.78;5027540;28;19963;-81
2021/12/18 04:47:04;;;;;;;;;;;;;;;2.63;80.68;100230.28;5026709;28;19917;-81
2021/12/18 04:49:29;;;;;;;;;;;;;;;2.78;80.24;100227.19;5027363;28;19913;-80
2021/12/18 04:51:55;;;;;;;;;;;;;;;2.83;79.68;100228.16;5026999;28;20052;-81
2021/12/18 04:54:20;;;;;;;;;;;;;;;2.77;79.18;100237.56;5027377;28;19917;-82
2021/12/18 04:56:46;;;;;;;;;;;;;;;2.91;79.55;100236.19;5026193;28;19921;-80
2021/12/18 04:59:12;;;;;;;;;;;;;;;2.92;78.72;100243.16;5027205;28;19920;-81
2021/12/18 05:01:39;;;;;;;;;;;;;;;2.85;78.95;100249.94;5035966;28;19921;-80
2021/12/18 05:04:08;;;;;;;;;;;;;;;3.04;78.80;100256.50;5043072;28;19924;-81
2021/12/18 05:06:36;;;;;;;;;;;;;;;3.04;78.73;100261.72;5026469;28;19916;-82
2021/12/18 05:09:01;;;;;;;;;;;;;;;3.08;78.29;100264.38;5027055;28;19960;-81
2021/12/18 05:11:27;;;;;;;;;;;;;;;3.19;77.71;100273.34;5027134;28;20374;-81
2021/12/18 05:13:52;;;;;;;;;;;;;;;3.06;77.52;100280.00;5026007;28;19966;-81
2021/12/18 05:16:17;;;;;;;;;;;;;;;3.09;77.93;100277.47;5027085;28;19923;-81
2021/12/18 05:18:42;;;;;;;;;;;;;;;3.03;78.27;100275.56;5036780;28;19916;-80
2021/12/18 05:21:10;;;;;;;;;;;;;;;2.47;79.73;100294.13;5040066;28;19924;-82
2021/12/18 05:23:35;;;;;;;;;;;;;;;2.68;78.70;100288.56;5035795;28;20589;-81
2021/12/18 05:26:00;;;;;;;;;;;;;;;2.73;78.90;100296.50;5028231;28;20008;-81
2021/12/18 05:28:26;;;;;;;;;;;;;;;2.93;78.46;100296.16;5026361;28;20403;-81
2021/12/18 05:30:51;;;;;;;;;;;;;;;2.82;78.48;100307.19;5027715;28;20379;-83
2021/12/18 05:33:16;;;;;;;;;;;;;;;2.87;78.69;100304.69;5005526;28;20398;-81
2021/12/18 05:35:42;;;;;;;;;;;;;;;2.96;77.95;100304.94;5045097;28;19975;-81
2021/12/18 05:38:07;;;;;;;;;;;;;;;2.93;78.17;100298.75;5031628;28;19917;-81
2021/12/18 05:40:34;;;;;;;;;;;;;;;3.13;77.51;100300.13;5043650;28;19916;-81
2021/12/18 05:42:59;;;;;;;;;;;;;;;2.92;77.84;100303.09;5031745;28;20379;-82
2021/12/18 05:45:25;;;;;;;;;;;;;;;2.86;78.14;100305.56;5028769;28;20055;-81
2021/12/18 05:47:50;;;;;;;;;;;;;;;2.74;78.69;100311.31;5030553;28;19924;-80
2021/12/18 05:50:17;;;;;;;;;;;;;;;2.86;77.98;100321.19;5029431;28;19924;-81
2021/12/18 05:52:44;;;;;;;;;;;;;;;2.92;78.50;100323.97;5029995;28;19928;-82
2021/12/18 05:55:10;;;;;;;;;;;;;;;2.91;78.59;100322.19;5030116;28;19913;-82
2021/12/18 05:57:35;;;;;;;;;;;;;;;2.92;78.70;100326.56;5029632;28;19927;-82
2021/12/18 06:00:01;;;;;;;;;;;;;;;3.14;78.39;100322.78;5030291;28;19917;-84
2021/12/18 06:02:26;;;;;;;;;;;;;;;3.17;77.48;100322.84;5033928;28;19920;-82
2021/12/18 06:04:51;;;;;;;;;;;;;;;3.22;77.20;100323.84;5030375;28;19916;-81
2021/12/18 06:07:29;;;;;;;;;;;;;;;3.25;77.10;100330.00;5030123;28;20338;-82
2021/12/18 06:09:55;;;;;;;;;;;;;;;3.29;76.43;100332.72;5029920;28;20415;-83
2021/12/18 06:12:20;;;;;;;;;;;;;;;3.25;76.72;100328.25;5045435;28;19990;-82
2021/12/18 06:14:46;;;;;;;;;;;;;;;3.32;76.63;100342.31;5038594;28;19913;-82
2021/12/18 06:17:11;;;;;;;;;;;;;;;3.19;76.88;100347.22;5031430;28;19932;-81
2021/12/18 06:19:36;;;;;;;;;;;;;;;3.30;76.73;100344.00;5038382;28;20009;-81
2021/12/18 06:22:02;;;;;;;;;;;;;;;3.22;76.39;100355.13;5049875;28;19917;-82
2021/12/18 06:24:28;;;;;;;;;;;;;;;3.19;75.99;100355.03;5036075;28;19921;-81
2021/12/18 06:26:54;;;;;;;;;;;;;;;3.10;76.47;100356.53;5049262;28;19920;-81
2021/12/18 06:29:19;;;;;;;;;;;;;;;3.28;76.36;100364.84;5049116;28;19923;-82
2021/12/18 06:31:44;;;;;;;;;;;;;;;3.32;76.04;100360.56;5048535;28;19913;-84
2021/12/18 06:34:10;;;;;;;;;;;;;;;3.31;75.89;100366.66;5035265;28;19920;-82
2021/12/18 06:36:35;;;;;;;;;;;;;;;3.25;75.78;100369.97;5048628;28;20305;-82
2021/12/18 06:39:00;;;;;;;;;;;;;;;3.25;75.44;100366.50;5037376;28;19913;-80
2021/12/18 06:41:26;;;;;;;;;;;;;;;3.17;75.96;100368.91;5046401;28;19926;-81
2021/12/18 06:43:51;;;;;;;;;;;;;;;3.28;75.73;100369.19;5048265;28;20355;-83
2021/12/18 06:46:16;;;;;;;;;;;;;;;3.21;76.57;100363.81;5049609;28;19948;-83
2021/12/18 06:48:42;;;;;;;;;;;;;;;3.15;76.92;100373.19;5040194;28;20015;-82
2021/12/18 06:51:07;;;;;;;;;;;;;;;3.24;77.11;100368.19;5029423;28;20386;-82
2021/12/18 06:53:32;;;;;;;;;;;;;;;3.22;76.67;100370.78;5030072;28;19928;-82
2021/12/18 06:55:58;;;;;;;;;;;;;;;3.38;77.17;100374.66;5047752;28;19948;-81
2021/12/18 06:58:23;;;;;;;;;;;;;;;3.42;77.46;100372.13;5046257;28;20306;-84
2021/12/18 07:00:49;;;;;;;;;;;;;;;3.45;76.95;100374.81;5049761;28;19917;-83
2021/12/18 07:03:14;;;;;;;;;;;;;;;3.38;77.16;100385.09;5049642;28;20430;-83
2021/12/18 07:05:40;;;;;;;;;;;;;;;3.23;78.39;100366.47;5049772;28;20406;-83
2021/12/18 07:08:05;;;;;;;;;;;;;;;3.23;78.47;100372.53;5044021;28;19920;-84
2021/12/18 07:10:31;;;;;;;;;;;;;;;2.90;79.64;100367.31;5028766;28;19940;-82
2021/12/18 07:12:57;;;;;;;;;;;;;;;3.09;79.31;100378.22;5029096;28;20417;-82
2021/12/18 07:15:22;;;;;;;;;;;;;;;2.97;80.13;100374.47;5028663;28;19920;-81
2021/12/18 07:17:47;;;;;;;;;;;;;;;2.56;81.40;100386.34;5028596;28;19983;-82
2021/12/18 07:20:13;;;;;;;;;;;;;;;2.54;82.49;100383.72;5028315;28;19917;-82
2021/12/18 07:22:38;;;;;;;;;;;;;;;2.62;82.23;100387.41;5029518;28;20380;-82
2021/12/18 07:25:04;;;;;;;;;;;;;;;2.73;81.98;100389.44;5027626;28;20346;-80
2021/12/18 07:27:29;;;;;;;;;;;;;;;3.02;81.39;100387.63;5028844;28;19921;-81
2021/12/18 07:29:55;;;;;;;;;;;;;;;2.74;81.69;100406.84;5038004;28;20007;-83
2021/12/18 07:32:20;;;;;;;;;;;;;;;2.74;82.35;100404.25;5030397;28;19928;-81
2021/12/18 07:34:45;;;;;;;;;;;;;;;3.29;82.66;100403.13;5028976;28;19923;-81
2021/12/18 07:37:11;;;;;;;;;;;;;;;3.61;80.84;100413.47;5028310;28;20378;-80
2021/12/18 07:39:36;;;;;;;;;;;;;;;3.63;80.11;100409.19;5028540;28;20450;-80
2021/12/18 07:42:01;;;;;;;;;;;;;;;3.72;79.79;100414.63;5029051;28;20011;-80
2021/12/18 07:44:27;;;;;;;;;;;;;;;3.81;80.24;100411.34;5027647;28;20296;-79
2021/12/18 07:46:52;;;;;;;;;;;;;;;3.92;78.48;100412.50;5031876;28;19928;-78
2021/12/18 07:49:17;;;;;;;;;;;;;;;4.10;78.75;100419.84;5028116;28;19957;-82
2021/12/18 07:51:43;;;;;;;;;;;;;;;4.02;77.59;100431.00;5027798;28;20011;-80
2021/12/18 07:54:08;;;;;;;;;;;;;;;4.02;77.42;100433.59;5028705;28;19964;-79
2021/12/18 07:56:34;;;;;;;;;;;;;;;4.01;77.04;100435.31;5028307;28;19921;-79
2021/12/18 07:59:00;;;;;;;;;;;;;;;3.53;77.91;100446.31;5028688;28;19975;-81
2021/12/18 08:01:25;;;;;;;;;;;;;;;3.62;78.52;100450.91;5040416;28;19924;-79
2021/12/18 08:03:51;;;;;;;;;;;;;;;3.59;78.66;100463.00;5034808;28;19913;-80
2021/12/18 08:06:16;;;;;;;;;;;;;;;3.66;77.99;100461.44;5039404;28;19931;-80
2021/12/18 08:08:42;;;;;;;;;;;;;;;3.53;79.17;100469.78;5043169;28;20016;-80
2021/12/18 08:11:07;;;;;;;;;;;;;;;3.59;78.70;100473.44;5037566;28;20362;-80
2021/12/18 08:13:33;;;;;;;;;;;;;;;3.64;79.05;100472.69;5027678;28;19917;-80
2021/12/18 08:15:58;;;;;;;;;;;;;;;3.79;78.70;100467.84;5034679;28;19924;-80
2021/12/18 08:18:23;;;;;;;;;;;;;;;3.93;77.78;100471.66;5033386;28;19925;-80
2021/12/18 08:20:49;;;;;;;;;;;;;;;3.72;77.80;100474.66;5034786;28;19923;-83
2021/12/18 08:23:14;;;;;;;;;;;;;;;3.33;79.46;100477.09;5041774;28;20011;-80
2021/12/18 08:25:39;;;;;;;;;;;;;;;3.46;79.68;100481.81;5034128;28;19964;-80
2021/12/18 08:28:05;;;;;;;;;;;;;;;3.68;79.86;100482.38;5029540;28;19920;-80
2021/12/18 08:30:33;;;;;;;;;;;;;;;3.83;78.56;100474.00;5045693;28;19917;-79
2021/12/18 08:32:59;;;;;;;;;;;;;;;4.27;77.90;100472.47;5041260;28;19953;-79
2021/12/18 08:35:25;;;;;;;;;;;;;;;4.20;76.60;100467.06;5039141;28;19979;-80
2021/12/18 08:37:51;;;;;;;;;;;;;;;4.28;76.48;100469.03;5035132;28;19917;-80
2021/12/18 08:40:16;;;;;;;;;;;;;;;3.80;76.80;100474.84;5031988;28;20434;-80
2021/12/18 08:42:42;;;;;;;;;;;;;;;3.78;78.17;100478.25;5044978;28;19912;-80
2021/12/18 08:45:07;;;;;;;;;;;;;;;3.84;76.81;100478.41;5046423;28;20015;-80
2021/12/18 08:47:33;;;;;;;;;;;;;;;3.62;78.28;100480.47;5047229;28;19935;-80
2021/12/18 08:49:59;;;;;;;;;;;;;;;3.38;78.46;100489.44;5047377;28;19919;-79
2021/12/18 08:52:25;;;;;;;;;;;;;;;3.47;79.13;100490.50;5047278;28;19916;-79
2021/12/18 08:54:50;;;;;;;;;;;;;;;3.53;78.64;100494.16;5047542;28;19915;-80
2021/12/18 08:57:16;;;;;;;;;;;;;;;3.68;78.40;100492.81;5046984;28;19921;-79
2021/12/18 08:59:41;;;;;;;;;;;;;;;3.79;77.34;100493.06;5047649;28;20367;-79
2021/12/18 09:02:07;;;;;;;;;;;;;;;3.85;77.31;100501.94;5047215;28;20387;-78
2021/12/18 09:04:33;;;;;;;;;;;;;;;3.78;77.01;100494.78;5047495;28;19923;-79
2021/12/18 09:06:58;;;;;;;;;;;;;;;3.84;77.08;100494.06;5047303;28;19916;-81
2021/12/18 09:09:23;;;;;;;;;;;;;;;3.80;76.25;100490.50;5047231;28;20374;-80
2021/12/18 09:11:49;;;;;;;;;;;;;;;3.96;76.59;100490.88;5037314;28;19967;-80
2021/12/18 09:14:14;;;;;;;;;;;;;;;4.06;76.31;100487.63;5038983;28;19917;-78
2021/12/18 09:16:39;;;;;;;;;;;;;;;4.51;76.10;100493.88;5046939;28;19917;-79
2021/12/18 09:19:05;;;;;;;;;;;;;;;4.39;74.74;100486.69;5050036;28;19917;-80
2021/12/18 09:21:30;;;;;;;;;;;;;;;4.10;75.50;100492.09;5051535;28;20394;-79
2021/12/18 09:23:56;;;;;;;;;;;;;;;4.34;75.90;100494.41;5050547;28;19944;-78
2021/12/18 09:26:21;;;;;;;;;;;;;;;4.69;75.62;100486.44;5050918;28;19916;-79
2021/12/18 09:28:46;;;;;;;;;;;;;;;4.67;74.53;100488.16;5051153;28;19974;-80
2021/12/18 09:31:12;;;;;;;;;;;;;;;4.46;73.96;100481.63;5050781;28;19913;-79
2021/12/18 09:33:37;;;;;;;;;;;;;;;4.62;74.79;100476.75;5041961;28;19924;-78
2021/12/18 09:36:03;;;;;;;;;;;;;;;4.86;74.24;100473.75;5030828;28;19917;-78
2021/12/18 09:38:28;;;;;;;;;;;;;;;4.79;74.33;100472.75;5029834;28;19924;-79
2021/12/18 09:40:56;;;;;;;;;;;;;;;5.00;74.54;100468.78;5030874;28;19916;-79
2021/12/18 09:43:22;;;;;;;;;;;;;;;4.82;72.48;100475.41;5030034;28;20015;-79
2021/12/18 09:45:47;;;;;;;;;;;;;;;4.76;73.73;100472.69;5030489;28;19916;-78
2021/12/18 09:48:13;;;;;;;;;;;;;;;5.25;72.76;100478.03;5029899;28;19916;-79
2021/12/18 09:50:41;;;;;;;;;;;;;;;5.17;70.81;100480.50;5029949;28;19921;-79
2021/12/18 09:53:06;;;;;;;;;;;;;;;5.11;71.56;100480.38;5030332;28;20384;-80
2021/12/18 09:55:32;;;;;;;;;;;;;;;5.48;71.37;100477.53;5029244;28;19924;-80
2021/12/18 09:57:57;;;;;;;;;;;;;;;5.43;70.62;100477.47;5030250;28;20310;-80
2021/12/18 10:00:23;;;;;;;;;;;;;;;4.77;71.46;100487.53;5030294;28;19923;-80
2021/12/18 10:02:49;;;;;;;;;;;;;;;4.80;71.41;100482.34;5032688;28;19917;-81
2021/12/18 10:05:25;;;;;;;;;;;;;;;4.76;71.26;100475.28;5032439;28;19943;-80
2021/12/18 10:08:08;;;;;;;;;;;;;;;5.08;70.00;100469.84;5030348;28;19924;-79
2021/12/18 10:10:34;;;;;;;;;;;;;;;5.32;69.91;100471.16;5030577;28;19916;-79
2021/12/18 10:13:04;;;;;;;;;;;;;;;5.41;70.51;100466.09;5028599;28;19954;-79
2021/12/18 10:15:30;;;;;;;;;;;;;;;5.41;68.56;100460.88;5030644;28;19974;-79
2021/12/18 10:18:05;;;;;;;;;;;;;;;5.32;69.46;100464.19;5030139;28;20375;-79
2021/12/18 10:20:31;;;;;;;;;;;;;;;5.60;68.02;100458.56;5030058;28;19920;-79
2021/12/18 10:22:58;;;;;;;;;;;;;;;5.51;69.24;100460.16;5030366;28;19916;-78
2021/12/18 10:25:25;;;;;;;;;;;;;;;5.71;69.18;100463.13;5030084;28;19917;-79
2021/12/18 10:28:01;;;;;;;;;;;;;;;5.87;69.59;100469.50;5029409;28;20011;-79
2021/12/18 10:30:26;;;;;;;;;;;;;;;5.50;69.48;100460.13;5029132;28;19916;-79
2021/12/18 10:32:58;;;;;;;;;;;;;;;5.89;69.19;100464.31;5030282;28;19913;-79
2021/12/18 10:35:44;;;;;;;;;;;;;;;5.96;68.58;100463.53;5029597;28;20413;-79
2021/12/18 10:38:10;;;;;;;;;;;;;;;6.01;68.05;100461.91;5029581;28;19932;-79
2021/12/18 10:40:43;;;;;;;;;;;;;;;6.16;66.95;100466.50;5029288;28;20383;-79
2021/12/18 10:43:09;;;;;;;;;;;;;;;6.13;67.10;100465.56;5029580;28;19917;-79
2021/12/18 10:45:35;;;;;;;;;;;;;;;6.09;67.45;100459.41;5029403;28;19921;-79
2021/12/18 10:48:01;;;;;;;;;;;;;;;6.18;66.85;100463.91;5029168;28;19960;-80
2021/12/18 10:50:26;;;;;;;;;;;;;;;6.14;66.86;100462.97;5029881;28;19916;-79
2021/12/18 10:52:53;;;;;;;;;;;;;;;5.80;67.14;100462.41;5029420;28;19913;-79
2021/12/18 10:55:18;;;;;;;;;;;;;;;5.83;67.67;100462.44;5029409;28;20032;-79
2021/12/18 10:57:53;;;;;;;;;;;;;;;5.67;68.16;100463.94;5029469;28;20118;-79
2021/12/18 11:00:39;;;;;;;;;;;;;;;5.48;69.21;100461.84;5028899;28;19975;-78
2021/12/18 11:03:18;;;;;;;;;;;;;;;5.35;69.21;100468.59;5029562;28;20069;-79
2021/12/18 11:06:01;;;;;;;;;;;;;;;5.32;69.82;100461.56;5029177;28;19971;-79
2021/12/18 11:08:26;;;;;;;;;;;;;;;5.29;70.33;100460.63;5029063;28;19921;-79
2021/12/18 11:13:38;;;;;;;;;;;;;;;4.76;72.20;100457.00;5034303;28;19923;-79
2021/12/18 11:13:48;;;;;;;;;;;;;;;4.52;73.98;100459.09;5036811;28;20314;-81
2021/12/18 11:16:13;;;;;;;;;;;;;;;4.21;76.05;100458.41;5036763;28;19952;-79
2021/12/18 11:18:39;;;;;;;;;;;;;;;4.28;76.51;100455.09;5031579;28;19971;-79
2021/12/18 11:21:04;;;;;;;;;;;;;;;4.58;76.43;100454.88;5036886;28;19927;-80
2021/12/18 11:23:37;;;;;;;;;;;;;;;4.93;75.58;100449.50;5048539;28;20338;-79
2021/12/18 11:26:03;;;;;;;;;;;;;;;5.10;75.07;100454.19;5048592;28;19962;-79
2021/12/18 11:28:30;;;;;;;;;;;;;;;5.24;74.70;100452.69;5038080;28;20852;-80
2021/12/18 11:30:56;;;;;;;;;;;;;;;5.19;73.95;100443.91;5035034;28;19920;-80
2021/12/18 11:33:21;;;;;;;;;;;;;;;5.11;74.23;100446.38;5043033;28;19965;-80
2021/12/18 11:35:47;;;;;;;;;;;;;;;5.47;73.69;100444.38;5043052;28;19997;-80
2021/12/18 11:38:14;;;;;;;;;;;;;;;5.63;73.84;100445.53;5033570;28;19917;-80
2021/12/18 11:40:40;;;;;;;;;;;;;;;5.66;73.97;100441.22;5028634;28;19924;-82
2021/12/18 11:43:06;;;;;;;;;;;;;;;5.68;74.42;100441.25;5028118;28;19921;-81
2021/12/18 11:45:33;;;;;;;;;;;;;;;5.61;75.58;100442.00;5028517;28;19928;-82
2021/12/18 11:48:00;;;;;;;;;;;;;;;5.41;74.97;100445.16;5043452;28;20066;-81
2021/12/18 11:50:31;;;;;;;;;;;;;;;5.52;74.71;100445.34;5037911;28;20383;-80
2021/12/18 11:53:08;;;;;;;;;;;;;;;5.79;74.17;100438.81;5028568;28;20021;-81
2021/12/18 11:55:35;;;;;;;;;;;;;;;5.82;73.71;100437.13;5028003;28;19913;-81
2021/12/18 11:58:03;;;;;;;;;;;;;;;5.65;73.39;100439.44;5028421;28;19920;-82
2021/12/18 12:00:34;;;;;;;;;;;;;;;5.78;73.42;100448.41;5035178;28;19920;-81
2021/12/18 12:03:00;;;;;;;;;;;;;;;5.61;73.69;100448.13;5042990;28;19912;-81
2021/12/18 12:05:36;;;;;;;;;;;;;;;5.54;74.17;100448.88;5048256;28;19927;-81
2021/12/18 12:08:20;;;;;;;;;;;;;;;5.55;74.81;100455.88;5048220;28;19959;-80
2021/12/18 12:11:04;;;;;;;;;;;;;;;5.42;76.14;100461.72;5044794;28;19917;-80
2021/12/18 12:13:48;;;;;;;;;;;;;;;5.09;76.35;100468.97;5029358;28;19970;-80
2021/12/18 12:16:13;;;;;;;;;;;;;;;5.26;75.62;100461.44;5027164;28;19921;-80
2021/12/18 12:18:57;;;;;;;;;;;;;;;5.20;75.72;100459.63;5026746;28;20327;-80
2021/12/18 12:21:45;;;;;;;;;;;;;;;5.01;76.59;100462.72;5027090;28;19928;-80
2021/12/18 12:24:12;;;;;;;;;;;;;;;4.93;76.46;100466.94;5024083;28;20399;-81
2021/12/18 12:26:38;;;;;;;;;;;;;;;5.17;76.04;100456.94;5027086;28;19925;-82
2021/12/18 12:29:05;;;;;;;;;;;;;;;5.25;75.04;100458.81;5027502;28;19963;-80
2021/12/18 12:31:31;;;;;;;;;;;;;;;5.13;75.48;100459.47;5028021;28;20470;-80
2021/12/18 12:34:25;;;;;;;;;;;;;;;4.92;76.26;100460.78;5027825;28;19917;-81
2021/12/18 12:36:57;;;;;;;;;;;;;;;4.84;76.74;100462.38;5026568;28;20391;-80
2021/12/18 12:39:23;;;;;;;;;;;;;;;4.83;76.63;100458.00;5031832;28;19917;-80
2021/12/18 12:41:51;;;;;;;;;;;;;;;4.96;76.64;100461.75;5047148;28;19924;-81
2021/12/18 12:44:24;;;;;;;;;;;;;;;4.95;76.33;100455.63;5034571;28;19979;-81
2021/12/18 12:47:09;;;;;;;;;;;;;;;4.94;75.47;100463.44;5027372;28;19999;-81
2021/12/18 12:49:35;;;;;;;;;;;;;;;4.85;75.21;100456.31;5027442;28;19979;-81
2021/12/18 12:52:10;;;;;;;;;;;;;;;4.40;76.17;100468.44;5027396;28;19959;-81
2021/12/18 12:54:48;;;;;;;;;;;;;;;4.29;77.57;100469.88;5041705;28;19923;-81
2021/12/18 12:57:23;;;;;;;;;;;;;;;4.33;77.14;100463.03;5047038;28;19921;-81
2021/12/18 13:00:08;;;;;;;;;;;;;;;4.44;76.74;100474.59;5045161;28;20019;-81
2021/12/18 13:02:33;;;;;;;;;;;;;;;4.23;76.76;100477.59;5040144;28;19960;-81
2021/12/18 13:05:06;;;;;;;;;;;;;;;4.03;77.49;100472.78;5045473;28;19959;-81
2021/12/18 13:07:32;;;;;;;;;;;;;;;4.26;77.13;100475.94;5047200;28;20394;-81
2021/12/18 13:09:57;;;;;;;;;;;;;;;4.01;77.32;100476.22;5047115;28;19961;-81
2021/12/18 13:12:23;;;;;;;;;;;;;;;3.91;78.20;100482.94;5046996;28;20019;-82
2021/12/18 13:14:48;;;;;;;;;;;;;;;4.26;76.88;100482.88;5035317;28;19921;-83
2021/12/18 13:17:17;;;;;;;;;;;;;;;4.09;76.54;100488.59;5026893;28;20689;-82
2021/12/18 13:19:52;;;;;;;;;;;;;;;4.01;78.07;100482.28;5039878;28;20023;-83
2021/12/18 13:22:18;;;;;;;;;;;;;;;4.13;76.62;100484.34;5047125;28;20433;-82
2021/12/18 13:24:43;;;;;;;;;;;;;;;3.78;78.21;100483.47;5045647;28;19952;-82
2021/12/18 13:27:11;;;;;;;;;;;;;;;3.97;78.17;100490.94;5046855;28;20727;-82
2021/12/18 13:29:37;;;;;;;;;;;;;;;4.40;76.60;100488.41;5046906;28;19921;-81